createdAt,value
2022-11-17T00:00:24.964Z,986.16
2022-11-17T00:01:24.954Z,986.14
2022-11-17T00:02:24.944Z,986.12
2022-11-17T00:03:24.931Z,986.13
2022-11-17T00:04:24.932Z,986.12
2022-11-17T00:05:24.914Z,986.08
2022-11-17T00:06:24.904Z,986.09
2022-11-17T00:07:24.889Z,986.07
2022-11-17T00:08:24.883Z,986.05
2022-11-17T00:09:24.867Z,986.08
2022-11-17T00:10:24.860Z,986.1
2022-11-17T00:11:24.861Z,986.03
2022-11-17T00:12:24.837Z,986.03
2022-11-17T00:13:24.831Z,986.02
2022-11-17T00:14:24.817Z,985.98
2022-11-17T00:15:24.805Z,986
2022-11-17T00:16:24.794Z,985.99
2022-11-17T00:17:24.799Z,986
2022-11-17T00:18:24.776Z,986.02
2022-11-17T00:19:24.760Z,985.99
2022-11-17T00:20:24.756Z,986
2022-11-17T00:21:24.763Z,985.92
2022-11-17T00:22:24.733Z,985.95
2022-11-17T00:23:24.717Z,985.93
2022-11-17T00:24:24.770Z,985.97
2022-11-17T00:25:24.713Z,985.96
2022-11-17T00:26:24.689Z,985.97
2022-11-17T00:27:24.678Z,985.91
2022-11-17T00:28:24.664Z,985.87
2022-11-17T00:29:24.657Z,985.89
2022-11-17T00:30:24.671Z,985.85
2022-11-17T00:31:24.641Z,985.75
2022-11-17T00:32:24.624Z,985.65
2022-11-17T00:33:24.615Z,985.61
2022-11-17T00:34:24.605Z,985.54
2022-11-17T00:35:24.594Z,985.53
2022-11-17T00:36:24.591Z,985.48
2022-11-17T00:37:24.568Z,985.47
2022-11-17T00:38:24.615Z,985.51
2022-11-17T00:39:24.554Z,985.45
2022-11-17T00:40:24.542Z,985.38
2022-11-17T00:41:24.528Z,985.4
2022-11-17T00:42:24.521Z,985.42
2022-11-17T00:43:24.506Z,985.4
2022-11-17T00:44:24.497Z,985.29
2022-11-17T00:45:24.522Z,985.37
2022-11-17T00:46:24.478Z,985.34
2022-11-17T00:47:24.467Z,985.36
2022-11-17T00:48:24.451Z,985.24
2022-11-17T00:49:24.440Z,985.28
2022-11-17T00:50:24.435Z,985.31
2022-11-17T00:51:24.424Z,985.3
2022-11-17T00:52:24.455Z,985.38
2022-11-17T00:53:24.401Z,985.23
2022-11-17T00:54:24.390Z,985.29
2022-11-17T00:55:24.377Z,985.31
2022-11-17T00:56:24.382Z,985.36
2022-11-17T00:57:24.383Z,985.28
2022-11-17T00:58:24.361Z,985.2
2022-11-17T00:59:24.342Z,985.2
2022-11-17T01:00:24.325Z,985.23
2022-11-17T01:01:24.317Z,985.22
2022-11-17T01:02:24.308Z,985.24
2022-11-17T01:03:24.336Z,985.19
2022-11-17T01:04:24.326Z,985.18
2022-11-17T01:05:24.395Z,985.17
2022-11-17T01:06:24.332Z,985.18
2022-11-17T01:07:24.307Z,985.16
2022-11-17T01:08:24.332Z,985.17
2022-11-17T01:09:24.231Z,985.16
2022-11-17T01:10:24.222Z,985.15
2022-11-17T01:11:24.233Z,985.11
2022-11-17T01:12:24.203Z,985.09
2022-11-17T01:13:24.193Z,985.09
2022-11-17T01:14:24.180Z,985.06
2022-11-17T01:15:24.173Z,985.02
2022-11-17T01:16:24.173Z,984.97
2022-11-17T01:17:24.151Z,984.94
2022-11-17T01:18:24.135Z,984.9
2022-11-17T01:19:24.126Z,984.83
2022-11-17T01:20:24.122Z,984.85
2022-11-17T01:21:24.107Z,984.81
2022-11-17T01:22:24.098Z,984.77
2022-11-17T01:23:24.106Z,984.78
2022-11-17T01:24:24.075Z,984.78
2022-11-17T01:25:24.071Z,984.74
2022-11-17T01:26:24.058Z,984.73
2022-11-17T01:27:24.044Z,984.65
2022-11-17T01:28:24.040Z,984.61
2022-11-17T01:29:24.030Z,984.63
2022-11-17T01:30:24.011Z,984.55
2022-11-17T01:31:24.013Z,984.45
2022-11-17T01:32:23.993Z,984.47
2022-11-17T01:33:23.981Z,984.4
2022-11-17T01:34:23.971Z,984.35
2022-11-17T01:35:23.975Z,984.38
2022-11-17T01:36:23.944Z,984.34
2022-11-17T01:37:23.933Z,984.29
2022-11-17T01:38:23.924Z,984.3
2022-11-17T01:39:23.915Z,984.33
2022-11-17T01:40:23.913Z,984.35
2022-11-17T01:41:23.904Z,984.39
2022-11-17T01:42:23.885Z,984.32
2022-11-17T01:43:23.876Z,984.33
2022-11-17T01:44:23.886Z,984.3
2022-11-17T01:45:23.854Z,984.31
2022-11-17T01:46:23.852Z,984.26
2022-11-17T01:47:23.831Z,984.22
2022-11-17T01:48:23.821Z,984.2
2022-11-17T01:49:23.808Z,984.21
2022-11-17T01:50:23.796Z,984.11
2022-11-17T01:51:23.799Z,984.17
2022-11-17T01:52:23.790Z,984.11
2022-11-17T01:53:23.767Z,984.07
2022-11-17T01:54:23.756Z,984.1
2022-11-17T01:55:23.746Z,984.09
2022-11-17T01:56:23.755Z,984.11
2022-11-17T01:57:23.721Z,984.11
2022-11-17T01:58:23.728Z,984.15
2022-11-17T01:59:23.699Z,984.11
2022-11-17T02:00:23.694Z,984.09
2022-11-17T02:01:23.686Z,984.03
2022-11-17T02:02:23.684Z,984.04
2022-11-17T02:03:23.656Z,984.05
2022-11-17T02:04:23.653Z,984.06
2022-11-17T02:05:23.640Z,984.02
2022-11-17T02:06:23.633Z,983.96
2022-11-17T02:07:23.617Z,984.04
2022-11-17T02:08:23.619Z,984.09
2022-11-17T02:09:23.594Z,983.96
2022-11-17T02:10:23.583Z,984.01
2022-11-17T02:11:23.583Z,984.02
2022-11-17T02:12:23.563Z,984.11
2022-11-17T02:13:23.569Z,983.99
2022-11-17T02:14:23.543Z,984.09
2022-11-17T02:15:23.540Z,984.04
2022-11-17T02:16:23.548Z,984.08
2022-11-17T02:17:23.510Z,984.09
2022-11-17T02:18:23.503Z,984.09
2022-11-17T02:19:23.492Z,984.1
2022-11-17T02:20:23.483Z,983.97
2022-11-17T02:21:23.467Z,983.98
2022-11-17T02:22:23.476Z,984.05
2022-11-17T02:23:23.452Z,983.97
2022-11-17T02:24:23.436Z,983.98
2022-11-17T02:25:23.427Z,983.9
2022-11-17T02:26:23.423Z,983.88
2022-11-17T02:27:23.407Z,983.84
2022-11-17T02:28:23.401Z,983.83
2022-11-17T02:29:23.384Z,983.77
2022-11-17T02:30:23.371Z,983.75
2022-11-17T02:31:23.364Z,983.76
2022-11-17T02:32:23.349Z,983.76
2022-11-17T02:33:23.339Z,983.72
2022-11-17T02:34:23.343Z,983.72
2022-11-17T02:35:23.322Z,983.69
2022-11-17T02:36:23.312Z,983.67
2022-11-17T02:37:23.299Z,983.69
2022-11-17T02:38:23.285Z,983.63
2022-11-17T02:39:23.276Z,983.69
2022-11-17T02:40:23.280Z,983.6
2022-11-17T02:41:23.259Z,983.66
2022-11-17T02:42:23.242Z,983.6
2022-11-17T02:43:23.233Z,983.61
2022-11-17T02:44:23.224Z,983.57
2022-11-17T02:45:23.212Z,983.56
2022-11-17T02:46:23.215Z,983.47
2022-11-17T02:47:23.189Z,983.45
2022-11-17T02:48:23.178Z,983.47
2022-11-17T02:49:23.171Z,983.38
2022-11-17T02:50:23.168Z,983.41
2022-11-17T02:51:23.153Z,983.38
2022-11-17T02:52:23.136Z,983.39
2022-11-17T02:53:23.133Z,983.38
2022-11-17T02:54:23.118Z,983.28
2022-11-17T02:55:23.110Z,983.2
2022-11-17T02:56:23.096Z,983.22
2022-11-17T02:57:23.087Z,983.14
2022-11-17T02:58:23.078Z,983.16
2022-11-17T02:59:23.077Z,983.05
2022-11-17T03:00:23.054Z,983.11
2022-11-17T03:01:23.042Z,983.07
2022-11-17T03:02:23.036Z,983.07
2022-11-17T03:03:23.031Z,983.01
2022-11-17T03:04:23.031Z,982.96
2022-11-17T03:05:23.000Z,982.97
2022-11-17T03:06:23.013Z,982.96
2022-11-17T03:07:22.983Z,982.93
2022-11-17T03:08:22.969Z,982.9
2022-11-17T03:09:22.956Z,982.88
2022-11-17T03:10:22.946Z,982.92
2022-11-17T03:11:22.942Z,982.83
2022-11-17T03:12:22.931Z,982.89
2022-11-17T03:13:22.918Z,982.87
2022-11-17T03:14:22.914Z,982.81
2022-11-17T03:15:22.892Z,982.88
2022-11-17T03:16:22.887Z,982.88
2022-11-17T03:17:22.877Z,982.83
2022-11-17T03:18:22.879Z,982.76
2022-11-17T03:19:22.855Z,982.77
2022-11-17T03:20:22.847Z,982.73
2022-11-17T03:21:22.831Z,982.72
2022-11-17T03:22:22.823Z,982.79
2022-11-17T03:23:22.824Z,982.81
2022-11-17T03:24:22.811Z,982.78
2022-11-17T03:25:22.791Z,982.81
2022-11-17T03:26:22.791Z,982.87
2022-11-17T03:27:22.776Z,982.92
2022-11-17T03:28:22.758Z,982.89
2022-11-17T03:29:22.751Z,982.87
2022-11-17T03:30:22.739Z,982.97
2022-11-17T03:31:22.728Z,982.94
2022-11-17T03:32:22.716Z,982.97
2022-11-17T03:33:22.709Z,982.96
2022-11-17T03:34:22.695Z,982.94
2022-11-17T03:35:22.691Z,982.94
2022-11-17T03:36:22.688Z,982.89
2022-11-17T03:37:22.682Z,982.94
2022-11-17T03:38:22.758Z,982.96
2022-11-17T03:39:22.647Z,982.91
2022-11-17T03:40:22.633Z,982.9
2022-11-17T03:41:22.628Z,982.9
2022-11-17T03:42:22.619Z,982.85
2022-11-17T03:43:22.605Z,982.89
2022-11-17T03:44:22.630Z,982.78
2022-11-17T03:45:22.623Z,982.81
2022-11-17T03:46:22.597Z,982.82
2022-11-17T03:47:22.558Z,982.76
2022-11-17T03:48:22.547Z,982.7
2022-11-17T03:49:22.555Z,982.69
2022-11-17T03:50:22.525Z,982.68
2022-11-17T03:51:22.512Z,982.71
2022-11-17T03:52:22.506Z,982.63
2022-11-17T03:53:22.495Z,982.66
2022-11-17T03:54:22.483Z,982.65
2022-11-17T03:55:22.502Z,982.56
2022-11-17T03:56:22.467Z,982.56
2022-11-17T03:57:22.455Z,982.53
2022-11-17T03:58:22.449Z,982.58
2022-11-17T03:59:22.431Z,982.5
2022-11-17T04:00:22.429Z,982.58
2022-11-17T04:01:22.417Z,982.59
2022-11-17T04:02:22.412Z,982.52
2022-11-17T04:03:22.395Z,982.53
2022-11-17T04:04:22.386Z,982.54
2022-11-17T04:05:22.387Z,982.42
2022-11-17T04:06:22.375Z,982.46
2022-11-17T04:07:22.356Z,982.49
2022-11-17T04:08:22.336Z,982.46
2022-11-17T04:09:22.343Z,982.44
2022-11-17T04:10:22.328Z,982.42
2022-11-17T04:11:22.309Z,982.35
2022-11-17T04:12:22.290Z,982.43
2022-11-17T04:13:22.285Z,982.37
2022-11-17T04:14:22.271Z,982.34
2022-11-17T04:15:22.266Z,982.36
2022-11-17T04:16:22.267Z,982.3
2022-11-17T04:17:22.245Z,982.33
2022-11-17T04:18:22.264Z,982.24
2022-11-17T04:19:22.226Z,982.28
2022-11-17T04:20:22.210Z,982.25
2022-11-17T04:21:22.201Z,982.25
2022-11-17T04:22:22.200Z,982.34
2022-11-17T04:23:22.177Z,982.31
2022-11-17T04:24:22.191Z,982.29
2022-11-17T04:25:22.162Z,982.33
2022-11-17T04:26:22.151Z,982.31
2022-11-17T04:27:22.131Z,982.29
2022-11-17T04:28:22.128Z,982.28
2022-11-17T04:29:22.119Z,982.34
2022-11-17T04:30:22.113Z,982.34
2022-11-17T04:31:22.095Z,982.32
2022-11-17T04:32:22.081Z,982.32
2022-11-17T04:33:22.089Z,982.32
2022-11-17T04:34:22.068Z,982.25
2022-11-17T04:35:22.054Z,982.3
2022-11-17T04:36:22.059Z,982.31
2022-11-17T04:37:22.042Z,982.26
2022-11-17T04:38:22.026Z,982.27
2022-11-17T04:39:22.017Z,982.21
2022-11-17T04:40:22.006Z,982.19
2022-11-17T04:41:21.999Z,982.22
2022-11-17T04:42:21.997Z,982.25
2022-11-17T04:43:21.961Z,982.23
2022-11-17T04:44:21.958Z,982.19
2022-11-17T04:45:21.988Z,982.26
2022-11-17T04:46:21.936Z,982.24
2022-11-17T04:47:21.924Z,982.25
2022-11-17T04:48:21.913Z,982.27
2022-11-17T04:49:21.898Z,982.23
2022-11-17T04:50:21.889Z,982.21
2022-11-17T04:51:21.887Z,982.25
2022-11-17T04:52:21.874Z,982.22
2022-11-17T04:53:21.874Z,982.21
2022-11-17T04:54:21.844Z,982.25
2022-11-17T04:55:21.854Z,982.22
2022-11-17T04:56:21.828Z,982.22
2022-11-17T04:57:21.815Z,982.2
2022-11-17T04:58:21.813Z,982.18
2022-11-17T04:59:21.806Z,982.21
2022-11-17T05:00:21.779Z,982.18
2022-11-17T05:01:21.768Z,982.19
2022-11-17T05:02:21.764Z,982.12
2022-11-17T05:03:21.753Z,982.15
2022-11-17T05:04:21.746Z,982.11
2022-11-17T05:05:21.737Z,982.13
2022-11-17T05:06:21.718Z,982.08
2022-11-17T05:07:21.715Z,982.08
2022-11-17T05:08:21.725Z,982.07
2022-11-17T05:09:21.688Z,982.09
2022-11-17T05:10:21.673Z,982.08
2022-11-17T05:11:21.667Z,982.03
2022-11-17T05:12:21.655Z,982.06
2022-11-17T05:13:21.648Z,981.97
2022-11-17T05:14:21.635Z,981.96
2022-11-17T05:15:21.626Z,981.97
2022-11-17T05:16:21.633Z,981.96
2022-11-17T05:17:21.622Z,981.95
2022-11-17T05:18:21.596Z,982.03
2022-11-17T05:19:21.581Z,982
2022-11-17T05:20:21.568Z,981.95
2022-11-17T05:21:21.558Z,981.89
2022-11-17T05:22:21.556Z,981.91
2022-11-17T05:23:21.537Z,981.86
2022-11-17T05:24:21.530Z,981.84
2022-11-17T05:25:21.520Z,981.8
2022-11-17T05:26:21.503Z,981.88
2022-11-17T05:27:21.499Z,981.8
2022-11-17T05:28:21.482Z,981.81
2022-11-17T05:29:21.480Z,981.76
2022-11-17T05:30:21.462Z,981.71
2022-11-17T05:31:21.446Z,981.75
2022-11-17T05:32:21.443Z,981.68
2022-11-17T05:33:21.430Z,981.66
2022-11-17T05:34:21.419Z,981.64
2022-11-17T05:35:21.443Z,981.54
2022-11-17T05:36:21.428Z,981.63
2022-11-17T05:37:21.385Z,981.6
2022-11-17T05:38:21.378Z,981.58
2022-11-17T05:39:21.361Z,981.52
2022-11-17T05:40:21.355Z,981.51
2022-11-17T05:41:21.345Z,981.46
2022-11-17T05:42:21.338Z,981.48
2022-11-17T05:43:21.329Z,981.49
2022-11-17T05:44:21.331Z,981.52
2022-11-17T05:45:21.336Z,981.49
2022-11-17T05:46:21.293Z,981.51
2022-11-17T05:47:21.278Z,981.53
2022-11-17T05:48:21.276Z,981.52
2022-11-17T05:49:21.270Z,981.57
2022-11-17T05:50:21.247Z,981.5
2022-11-17T05:51:21.236Z,981.58
2022-11-17T05:52:21.221Z,981.58
2022-11-17T05:53:21.210Z,981.6
2022-11-17T05:54:21.199Z,981.55
2022-11-17T05:55:21.194Z,981.51
2022-11-17T05:56:21.188Z,981.46
2022-11-17T05:57:21.171Z,981.52
2022-11-17T05:58:21.163Z,981.53
2022-11-17T05:59:21.147Z,981.52
2022-11-17T06:00:21.137Z,981.5
2022-11-17T06:01:21.129Z,981.46
2022-11-17T06:02:21.120Z,981.48
2022-11-17T06:03:21.119Z,981.43
2022-11-17T06:04:21.094Z,981.37
2022-11-17T06:05:21.087Z,981.44
2022-11-17T06:06:21.069Z,981.43
2022-11-17T06:07:21.081Z,981.44
2022-11-17T06:08:21.103Z,981.46
2022-11-17T06:09:21.047Z,981.42
2022-11-17T06:10:21.032Z,981.43
2022-11-17T06:11:21.017Z,981.44
2022-11-17T06:12:21.007Z,981.34
2022-11-17T06:13:20.998Z,981.3
2022-11-17T06:14:20.990Z,981.32
2022-11-17T06:15:20.976Z,981.38
2022-11-17T06:16:20.974Z,981.29
2022-11-17T06:17:20.958Z,981.23
2022-11-17T06:18:20.945Z,981.23
2022-11-17T06:19:20.930Z,981.2
2022-11-17T06:20:20.934Z,981.07
2022-11-17T06:21:20.912Z,981.14
2022-11-17T06:22:20.905Z,981.09
2022-11-17T06:23:20.888Z,981.21
2022-11-17T06:24:20.885Z,981.22
2022-11-17T06:25:20.864Z,981.22
2022-11-17T06:26:20.858Z,981.07
2022-11-17T06:27:20.847Z,981.16
2022-11-17T06:28:20.839Z,981.08
2022-11-17T06:29:20.822Z,981.11
2022-11-17T06:30:20.821Z,981.14
2022-11-17T06:31:20.804Z,981.07
2022-11-17T06:32:20.795Z,981.08
2022-11-17T06:33:20.787Z,981.11
2022-11-17T06:34:20.770Z,981.05
2022-11-17T06:35:20.763Z,980.99
2022-11-17T06:36:20.752Z,980.97
2022-11-17T06:37:20.739Z,981.06
2022-11-17T06:38:20.730Z,981.08
2022-11-17T06:39:20.718Z,981.03
2022-11-17T06:40:20.707Z,980.89
2022-11-17T06:41:20.697Z,980.93
2022-11-17T06:42:20.688Z,980.9
2022-11-17T06:43:20.685Z,980.87
2022-11-17T06:44:20.660Z,980.67
2022-11-17T06:45:20.657Z,980.71
2022-11-17T06:46:20.647Z,980.78
2022-11-17T06:47:20.631Z,980.79
2022-11-17T06:48:20.619Z,980.72
2022-11-17T06:49:20.610Z,980.67
2022-11-17T06:50:20.601Z,980.82
2022-11-17T06:51:20.619Z,980.81
2022-11-17T06:52:20.576Z,980.84
2022-11-17T06:53:20.583Z,980.85
2022-11-17T06:54:20.564Z,980.9
2022-11-17T06:55:20.573Z,980.89
2022-11-17T06:56:20.547Z,980.91
2022-11-17T06:57:20.534Z,980.88
2022-11-17T06:58:20.521Z,980.91
2022-11-17T06:59:20.518Z,980.9
2022-11-17T07:00:20.519Z,980.9
2022-11-17T07:01:20.493Z,980.88
2022-11-17T07:02:20.485Z,980.91
2022-11-17T07:03:20.471Z,980.79
2022-11-17T07:04:20.469Z,980.85
2022-11-17T07:05:20.449Z,980.77
2022-11-17T07:06:20.450Z,980.79
2022-11-17T07:07:20.436Z,980.72
2022-11-17T07:08:20.417Z,980.78
2022-11-17T07:09:20.405Z,980.79
2022-11-17T07:10:20.393Z,980.79
2022-11-17T07:11:20.383Z,980.75
2022-11-17T07:12:20.374Z,980.73
2022-11-17T07:13:20.374Z,980.85
2022-11-17T07:14:20.372Z,980.72
2022-11-17T07:15:20.354Z,980.82
2022-11-17T07:16:20.353Z,980.8
2022-11-17T07:17:20.337Z,980.76
2022-11-17T07:18:20.329Z,980.75
2022-11-17T07:19:20.299Z,980.69
2022-11-17T07:20:20.282Z,980.64
2022-11-17T07:21:20.282Z,980.74
2022-11-17T07:22:20.265Z,980.71
2022-11-17T07:23:20.263Z,980.73
2022-11-17T07:24:20.240Z,980.69
2022-11-17T07:25:20.239Z,980.78
2022-11-17T07:26:20.224Z,980.8
2022-11-17T07:27:20.208Z,980.8
2022-11-17T07:28:20.214Z,980.79
2022-11-17T07:29:20.204Z,980.85
2022-11-17T07:30:20.178Z,980.91
2022-11-17T07:31:20.185Z,980.88
2022-11-17T07:32:20.185Z,980.9
2022-11-17T07:33:20.181Z,980.91
2022-11-17T07:34:20.135Z,980.9
2022-11-17T07:35:20.181Z,980.87
2022-11-17T07:36:20.175Z,980.85
2022-11-17T07:37:20.203Z,980.84
2022-11-17T07:38:20.126Z,980.79
2022-11-17T07:39:20.084Z,980.78
2022-11-17T07:40:20.084Z,980.79
2022-11-17T07:41:20.059Z,980.8
2022-11-17T07:42:20.054Z,980.82
2022-11-17T07:43:20.049Z,980.9
2022-11-17T07:44:20.067Z,980.93
2022-11-17T07:45:20.028Z,980.92
2022-11-17T07:46:20.020Z,980.93
2022-11-17T07:47:19.997Z,980.99
2022-11-17T07:48:19.987Z,980.98
2022-11-17T07:49:19.980Z,980.99
2022-11-17T07:50:19.965Z,980.95
2022-11-17T07:51:19.954Z,980.92
2022-11-17T07:52:19.967Z,981.01
2022-11-17T07:53:19.932Z,980.99
2022-11-17T07:54:19.918Z,981.04
2022-11-17T07:55:19.919Z,981.07
2022-11-17T07:56:19.906Z,981.03
2022-11-17T07:57:19.918Z,981.16
2022-11-17T07:58:19.885Z,981.13
2022-11-17T07:59:19.877Z,981.1
2022-11-17T08:00:19.857Z,981.12
2022-11-17T08:01:19.867Z,981.02
2022-11-17T08:02:19.919Z,981.04
2022-11-17T08:03:19.843Z,981.06
2022-11-17T08:04:19.818Z,981.02
2022-11-17T08:05:19.802Z,981.02
2022-11-17T08:06:19.808Z,980.95
2022-11-17T08:07:19.834Z,980.97
2022-11-17T08:08:19.783Z,980.98
2022-11-17T08:09:19.763Z,980.88
2022-11-17T08:10:19.754Z,980.85
2022-11-17T08:11:19.753Z,980.79
2022-11-17T08:12:19.732Z,980.79
2022-11-17T08:13:19.763Z,980.86
2022-11-17T08:14:19.726Z,980.87
2022-11-17T08:15:19.706Z,980.79
2022-11-17T08:16:19.707Z,980.84
2022-11-17T08:17:19.673Z,980.88
2022-11-17T08:18:19.790Z,980.83
2022-11-17T08:19:19.668Z,980.88
2022-11-17T08:20:19.655Z,980.85
2022-11-17T08:21:19.642Z,980.74
2022-11-17T08:22:19.635Z,980.89
2022-11-17T08:23:19.636Z,980.85
2022-11-17T08:24:19.643Z,980.78
2022-11-17T08:25:19.643Z,980.78
2022-11-17T08:26:19.837Z,980.84
2022-11-17T08:27:19.599Z,980.83
2022-11-17T08:28:19.570Z,980.86
2022-11-17T08:29:19.727Z,980.84
2022-11-17T08:30:20.593Z,980.84
2022-11-17T08:31:19.639Z,980.82
2022-11-17T08:32:19.546Z,980.81
2022-11-17T08:33:20.606Z,980.78
2022-11-17T08:34:19.571Z,980.81
2022-11-17T08:35:19.538Z,980.82
2022-11-17T08:36:19.575Z,980.83
2022-11-17T08:37:19.575Z,980.78
2022-11-17T08:38:19.474Z,980.87
2022-11-17T08:39:19.466Z,980.79
2022-11-17T08:40:19.484Z,980.8
2022-11-17T08:41:20.443Z,980.77
2022-11-17T08:42:19.407Z,980.74
2022-11-17T08:43:19.408Z,980.73
2022-11-17T08:44:19.422Z,980.75
2022-11-17T08:45:19.442Z,980.71
2022-11-17T08:46:19.373Z,980.69
2022-11-17T08:47:19.376Z,980.77
2022-11-17T08:48:19.423Z,980.71
2022-11-17T08:49:19.455Z,980.71
2022-11-17T08:50:19.331Z,980.7
2022-11-17T08:51:19.414Z,980.74
2022-11-17T08:52:19.480Z,980.63
2022-11-17T08:53:19.395Z,980.73
2022-11-17T08:54:19.447Z,980.75
2022-11-17T08:55:19.330Z,980.75
2022-11-17T08:56:19.528Z,980.71
2022-11-17T08:57:19.262Z,980.75
2022-11-17T08:58:19.272Z,980.77
2022-11-17T08:59:19.293Z,980.75
2022-11-17T09:00:20.223Z,980.74
2022-11-17T09:01:19.244Z,980.82
2022-11-17T09:02:19.252Z,980.79
2022-11-17T09:03:19.235Z,980.85
2022-11-17T09:04:19.296Z,980.79
2022-11-17T09:05:19.248Z,980.83
2022-11-17T09:06:19.211Z,980.89
2022-11-17T09:07:19.660Z,980.84
2022-11-17T09:08:20.303Z,980.84
2022-11-17T09:09:19.171Z,980.94
2022-11-17T09:10:19.151Z,980.97
2022-11-17T09:11:19.211Z,980.91
2022-11-17T09:12:19.108Z,980.89
2022-11-17T09:13:19.130Z,980.92
2022-11-17T09:14:19.252Z,980.94
2022-11-17T09:15:19.135Z,980.96
2022-11-17T09:16:19.079Z,980.97
2022-11-17T09:17:19.056Z,980.9
2022-11-17T09:18:19.040Z,980.91
2022-11-17T09:19:19.079Z,980.96
2022-11-17T09:20:19.033Z,980.97
2022-11-17T09:21:19.072Z,980.91
2022-11-17T09:22:19.945Z,981
2022-11-17T09:23:18.995Z,981.05
2022-11-17T09:24:19.054Z,980.94
2022-11-17T09:25:19.022Z,980.97
2022-11-17T09:26:19.004Z,981.01
2022-11-17T09:27:18.990Z,980.98
2022-11-17T09:28:18.933Z,981.02
2022-11-17T09:29:18.949Z,980.97
2022-11-17T09:30:19.026Z,980.97
2022-11-17T09:31:18.971Z,980.99
2022-11-17T09:32:19.885Z,981.01
2022-11-17T09:33:18.884Z,980.97
2022-11-17T09:34:18.862Z,980.94
2022-11-17T09:35:18.862Z,980.96
2022-11-17T09:36:18.863Z,980.87
2022-11-17T09:37:18.828Z,980.84
2022-11-17T09:38:18.860Z,980.86
2022-11-17T09:39:18.819Z,980.86
2022-11-17T09:40:18.835Z,980.82
2022-11-17T09:41:18.816Z,980.87
2022-11-17T09:42:18.978Z,980.81
2022-11-17T09:43:18.866Z,980.87
2022-11-17T09:46:37.446Z,980.92
2022-11-17T09:47:37.386Z,980.88
2022-11-17T09:48:37.368Z,980.95
2022-11-17T09:49:37.484Z,980.91
2022-11-17T09:50:38.309Z,980.86
2022-11-17T09:51:37.288Z,980.86
2022-11-17T09:52:37.290Z,980.9
2022-11-17T09:53:37.284Z,980.92
2022-11-17T09:54:37.270Z,980.9
2022-11-17T09:55:37.271Z,981.01
2022-11-17T09:56:37.245Z,981
2022-11-17T09:57:37.235Z,981.02
2022-11-17T09:58:37.232Z,980.99
2022-11-17T09:59:37.223Z,980.97
2022-11-17T10:00:37.201Z,980.97
2022-11-17T10:01:37.186Z,981.06
2022-11-17T10:02:37.183Z,980.95
2022-11-17T10:03:37.165Z,981.06
2022-11-17T10:04:37.167Z,981.04
2022-11-17T10:05:37.150Z,981.11
2022-11-17T10:06:37.224Z,981.15
2022-11-17T10:07:37.125Z,981.18
2022-11-17T10:08:37.113Z,981.14
2022-11-17T10:09:37.115Z,981.16
2022-11-17T10:10:37.106Z,981.03
2022-11-17T10:11:37.078Z,981.06
2022-11-17T10:12:37.081Z,981.08
2022-11-17T10:13:37.077Z,981
2022-11-17T10:14:37.052Z,981.03
2022-11-17T10:15:37.075Z,981.03
2022-11-17T10:16:37.079Z,980.99
2022-11-17T10:17:37.082Z,981.03
2022-11-17T10:18:37.020Z,981.1
2022-11-17T10:19:36.999Z,981.07
2022-11-17T10:20:36.985Z,981.07
2022-11-17T10:21:37.003Z,981.09
2022-11-17T10:22:36.976Z,981.1
2022-11-17T10:23:36.954Z,981.08
2022-11-17T10:24:36.950Z,981.1
2022-11-17T10:25:36.937Z,981.13
2022-11-17T10:26:36.922Z,981.03
2022-11-17T10:27:36.911Z,981.03
2022-11-17T10:28:36.914Z,981.12
2022-11-17T10:29:36.887Z,981.09
2022-11-17T10:30:36.886Z,981.07
2022-11-17T10:31:36.870Z,981.12
2022-11-17T10:32:36.858Z,981.06
2022-11-17T10:33:36.847Z,981.09
2022-11-17T10:34:36.834Z,981.07
2022-11-17T10:35:36.824Z,981.07
2022-11-17T10:36:36.830Z,981.01
2022-11-17T10:37:36.818Z,981.06
2022-11-17T10:38:36.808Z,981.17
2022-11-17T10:39:36.785Z,981.09
2022-11-17T10:40:36.797Z,981.15
2022-11-17T10:41:36.789Z,981.08
2022-11-17T10:42:36.763Z,981.12
2022-11-17T10:43:36.801Z,981.15
2022-11-17T10:44:36.743Z,981.11
2022-11-17T10:45:36.724Z,981.05
2022-11-17T10:46:36.712Z,981.04
2022-11-17T10:47:36.719Z,981.01
2022-11-17T10:48:36.700Z,981.01
2022-11-17T10:49:36.696Z,981.04
2022-11-17T10:50:36.698Z,981.05
2022-11-17T10:51:36.654Z,981.07
2022-11-17T10:52:36.658Z,980.95
2022-11-17T10:53:36.707Z,980.97
2022-11-17T10:54:36.627Z,980.99
2022-11-17T10:55:36.623Z,980.95
2022-11-17T10:56:36.617Z,980.95
2022-11-17T10:57:36.621Z,980.96
2022-11-17T10:58:36.586Z,980.91
2022-11-17T10:59:36.575Z,980.96
2022-11-17T11:00:37.249Z,980.92
2022-11-17T11:01:36.566Z,980.91
2022-11-17T11:02:36.540Z,980.9
2022-11-17T11:03:36.539Z,980.89
2022-11-17T11:04:36.520Z,980.89
2022-11-17T11:05:36.515Z,980.9
2022-11-17T11:06:36.498Z,980.87
2022-11-17T11:07:36.503Z,980.87
2022-11-17T11:08:36.482Z,980.94
2022-11-17T11:09:36.469Z,980.86
2022-11-17T11:10:36.460Z,980.87
2022-11-17T11:11:36.452Z,980.9
2022-11-17T11:12:36.462Z,980.85
2022-11-17T11:13:36.451Z,980.9
2022-11-17T11:14:36.438Z,980.9
2022-11-17T11:15:36.579Z,980.96
2022-11-17T11:16:37.415Z,980.9
2022-11-17T11:17:36.391Z,980.91
2022-11-17T11:18:36.383Z,980.94
2022-11-17T11:19:36.373Z,980.95
2022-11-17T11:20:36.367Z,980.91
2022-11-17T11:21:36.371Z,980.93
2022-11-17T11:22:36.362Z,980.92
2022-11-17T11:23:36.355Z,980.92
2022-11-17T11:24:36.356Z,980.94
2022-11-17T11:25:36.323Z,980.94
2022-11-17T11:26:36.322Z,980.95
2022-11-17T11:27:36.300Z,980.99
2022-11-17T11:28:36.518Z,980.97
2022-11-17T11:29:36.305Z,981
2022-11-17T11:30:36.260Z,981.02
2022-11-17T11:31:36.292Z,981.02
2022-11-17T11:32:36.241Z,980.98
2022-11-17T11:33:36.296Z,981.05
2022-11-17T11:34:36.212Z,981.03
2022-11-17T11:35:36.200Z,981.06
2022-11-17T11:36:36.195Z,981.1
2022-11-17T11:37:36.185Z,981.08
2022-11-17T11:38:36.189Z,980.98
2022-11-17T11:39:36.792Z,981.08
2022-11-17T11:40:36.162Z,981.09
2022-11-17T11:41:36.152Z,981.09
2022-11-17T11:42:36.173Z,981.14
2022-11-17T11:43:36.118Z,981.07
2022-11-17T11:44:36.107Z,981.11
2022-11-17T11:45:36.113Z,981.07
2022-11-17T11:46:36.140Z,981.16
2022-11-17T11:47:36.262Z,981.08
2022-11-17T11:48:36.095Z,981.15
2022-11-17T11:49:36.097Z,981.19
2022-11-17T11:50:36.068Z,981.24
2022-11-17T11:51:36.041Z,981.28
2022-11-17T11:52:36.021Z,981.21
2022-11-17T11:53:36.024Z,981.21
2022-11-17T11:54:36.028Z,981.26
2022-11-17T11:55:36.003Z,981.25
2022-11-17T11:56:35.996Z,981.29
2022-11-17T11:57:36.004Z,981.3
2022-11-17T11:58:35.963Z,981.4
2022-11-17T11:59:35.951Z,981.26
2022-11-17T12:00:35.970Z,981.34
2022-11-17T12:01:36.200Z,981.3
2022-11-17T12:02:35.931Z,981.43
2022-11-17T12:03:35.962Z,981.37
2022-11-17T12:04:35.896Z,981.36
2022-11-17T12:05:35.950Z,981.29
2022-11-17T12:06:35.898Z,981.32
2022-11-17T12:07:35.879Z,981.35
2022-11-17T12:08:35.889Z,981.32
2022-11-17T12:09:35.873Z,981.33
2022-11-17T12:10:35.835Z,981.39
2022-11-17T12:11:35.839Z,981.39
2022-11-17T12:12:35.826Z,981.4
2022-11-17T12:13:35.837Z,981.36
2022-11-17T12:14:35.826Z,981.37
2022-11-17T12:15:35.784Z,981.36
2022-11-17T12:16:35.902Z,981.34
2022-11-17T12:17:36.776Z,981.37
2022-11-17T12:18:35.788Z,981.41
2022-11-17T12:19:35.789Z,981.43
2022-11-17T12:20:35.808Z,981.42
2022-11-17T12:21:35.721Z,981.41
2022-11-17T12:22:35.729Z,981.42
2022-11-17T12:23:35.742Z,981.46
2022-11-17T12:24:35.734Z,981.44
2022-11-17T12:25:35.686Z,981.4
2022-11-17T12:26:35.668Z,981.41
2022-11-17T12:27:35.680Z,981.39
2022-11-17T12:28:36.330Z,981.43
2022-11-17T12:29:35.670Z,981.41
2022-11-17T12:30:35.635Z,981.41
2022-11-17T12:31:35.674Z,981.4
2022-11-17T12:32:35.624Z,981.38
2022-11-17T12:33:35.608Z,981.41